Latest Weather Observations for Brisbane

IDQ60801

Issued at 2:22 pm EST Sunday 17 February 2019 (issued every 10 minutes, with the page automatically refreshed every 10 minutes)

About weather observations | Map of weather stations | Latest weather observations for QLD | Other Formats
Station Details ID: 040913 Name: BRISBANE Lat: -27.48 Lon: 153.04 Height: 8.13 m
Data from the previous 72 hours. | See also: Recent months at Brisbane
Date/Time
EST
Temp
°C
App
Temp
°C
Dew
Point
°C
Rel
Hum
%
Delta-T
°C
Wind Press
QNH
hPa
Press
MSL
hPa
Rain since
9am
mm
Dir  Spd
km/h
Gust
km/h
Spd
kts
Gust
kts
17/02:00pm 31.5 31.1 14.2 35 10.5 ESE 9 20 5 11 1011.4 1011.4 0.0
17/01:30pm 29.8 29.4 14.0 38 9.5 E 9 19 5 10 1011.9 1011.9 0.0
17/01:00pm 30.2 29.4 13.9 37 9.8 SE 11 24 6 13 1012.4 1012.4 0.0
17/12:30pm 30.2 30.1 13.9 37 9.8 ESE 7 19 4 10 1012.7 1012.7 0.0
17/12:00pm 30.7 29.7 13.5 35 10.3 ESE 11 22 6 12 1013.2 1013.2 0.0
17/11:30am 30.1 29.6 12.5 34 10.4 E 7 17 4 9 1013.5 1013.5 0.0
17/11:00am 30.1 29.1 13.4 36 10.0 ESE 11 17 6 9 1014.1 1014.1 0.0
17/10:30am 28.6 27.4 12.9 38 9.2 SSE 11 19 6 10 1014.5 1014.5 0.0
17/10:00am 28.5 28.2 14.3 41 8.5 ESE 9 19 5 10 1014.8 1014.8 0.0
17/09:30am 28.4 28.7 15.0 44 8.1 SSE 7 17 4 9 1014.9 1014.9 0.0
17/09:00am 27.2 27.6 15.2 47 7.3 SSE 7 15 4 8 1014.9 1014.9 0.0
17/08:30am 26.1 26.7 15.8 53 6.3 SSW 7 13 4 7 1014.9 1014.9 0.0
17/08:00am 25.0 25.7 15.6 56 5.7 SW 6 15 3 8 1014.9 1014.9 0.0
17/07:30am 23.7 24.3 15.2 59 5.1 S 6 13 3 7 1014.8 1014.8 0.0
17/07:00am 22.1 22.7 15.2 65 4.1 SW 6 13 3 7 1014.6 1014.6 0.0
17/06:30am 21.2 22.1 15.1 68 3.6 SW 4 9 2 5 1014.3 1014.3 0.0
17/06:00am 20.4 21.0 15.2 72 3.1 SSW 6 11 3 6 1013.9 1013.9 0.0
17/05:30am 20.2 20.7 15.0 72 3.1 SW 6 11 3 6 1013.7 1013.7 0.0
17/05:00am 20.2 21.0 14.8 71 3.2 SSW 4 7 2 4 1013.5 1013.5 0.0
17/04:30am 20.5 21.4 15.1 71 3.2 SW 4 11 2 6 1013.4 1013.4 0.0
17/04:00am 20.5 21.8 15.1 71 3.2 SW 2 6 1 3 1013.4 1013.4 0.0
17/03:30am 20.8 22.0 14.9 69 3.5 SW 2 7 1 4 1013.6 1013.6 0.0
17/03:00am 20.9 21.8 15.0 69 3.5 SW 4 9 2 5 1013.7 1013.7 0.0
17/02:30am 20.7 21.9 15.0 70 3.4 SW 2 6 1 3 1013.9 1013.9 0.0
17/02:00am 21.2 22.6 15.5 70 3.4 SW 2 7 1 4 1014.2 1014.2 0.0
17/01:30am 21.4 22.9 15.7 70 3.4 SSW 2 6 1 3 1014.5 1014.5 0.0
17/01:00am 21.8 23.4 15.9 69 3.5 SSW 2 6 1 3 1014.8 1014.8 0.0
17/12:30am 22.2 23.8 16.0 68 3.7 SSW 2 7 1 4 1015.3 1015.3 0.0
17/12:00am 22.6 23.8 15.9 66 4.0 SSW 4 6 2 3 1015.7 1015.7 0.0
 
Date/Time
EST
Temp
°C
App
Temp
°C
Dew
Point
°C
Rel
Hum
%
Delta-T
°C
Wind Press
QNH
hPa
Press
MSL
hPa
Rain since
9am
mm
Dir  Spd
km/h
Gust
km/h
Spd
kts
Gust
kts
16/11:30pm 23.1 24.4 16.2 65 4.2 SSW 4 6 2 3 1016.0 1016.0 0.0
16/11:00pm 23.6 25.0 16.4 64 4.4 SSE 4 11 2 6 1016.2 1016.2 0.0
16/10:30pm 23.6 24.6 16.4 64 4.4 SSE 6 9 3 5 1016.3 1016.3 0.0
16/10:00pm 23.6 24.7 16.6 65 4.3 SE 6 9 3 5 1016.4 1016.4 0.0
16/09:30pm 23.7 25.3 17.0 66 4.1 SE 4 11 2 6 1016.4 1016.4 0.0
16/09:00pm 23.8 25.3 17.5 68 3.9 ESE 6 9 3 5 1016.3 1016.3 0.0
16/08:30pm 24.3 25.2 17.5 66 4.2 ESE 9 17 5 9 1016.3 1016.3 0.0
16/08:00pm 24.7 25.5 17.4 64 4.5 ESE 9 20 5 11 1016.2 1016.2 0.0
16/07:30pm 24.6 25.2 17.6 65 4.4 ESE 11 26 6 14 1016.1 1016.1 0.0
16/07:00pm 24.9 25.5 16.9 61 4.9 ESE 9 17 5 9 1015.9 1015.9 0.0
16/06:30pm 25.2 24.5 16.4 58 5.4 SE 15 30 8 16 1015.6 1015.6 0.0
16/06:00pm 25.6 25.4 16.7 58 5.5 ESE 13 24 7 13 1015.3 1015.3 0.0
16/05:30pm 26.1 25.3 16.1 54 6.1 ESE 15 32 8 17 1015.1 1015.1 0.0
16/05:00pm 26.9 26.0 15.9 51 6.7 SE 15 24 8 13 1014.9 1014.9 0.0
16/04:30pm 27.5 26.8 16.5 51 6.8 ESE 15 26 8 14 1014.7 1014.7 0.0
16/04:00pm 27.3 26.2 16.3 51 6.8 ESE 17 32 9 17 1014.8 1014.8 0.0
16/03:30pm 28.5 27.4 16.4 48 7.5 SE 17 30 9 16 1014.7 1014.7 0.0
16/03:00pm 28.6 28.1 16.8 48 7.4 ESE 15 28 8 15 1014.7 1014.7 0.0
16/02:30pm 28.4 27.8 16.7 49 7.3 SE 15 30 8 16 1015.1 1015.1 0.0
16/02:00pm 29.1 28.6 17.0 48 7.6 SE 15 24 8 13 1015.4 1015.4 0.0
16/01:30pm 28.9 28.4 16.8 48 7.6 ESE 15 30 8 16 1015.6 1015.6 0.0
16/01:00pm 28.9 29.1 15.8 45 8.1 ESE 9 20 5 11 1015.9 1015.9 0.0
16/12:30pm 30.0 28.7 14.9 39 9.2 ESE 15 24 8 13 1016.3 1016.3 0.0
16/12:00pm 29.4 28.3 14.4 40 9.1 ESE 13 26 7 14 1016.7 1016.7 0.0
16/11:30am 29.3 28.1 13.9 39 9.2 ESE 13 28 7 15 1017.1 1017.1 0.0
16/11:00am 28.7 27.2 14.1 40 8.7 ESE 15 26 8 14 1017.4 1017.4 0.0
16/10:30am 28.5 27.0 14.3 41 8.5 SE 15 28 8 15 1017.8 1017.8 0.0
16/10:00am 27.3 26.5 15.0 47 7.4 ESE 13 20 7 11 1018.1 1018.1 0.0
16/09:30am 27.6 26.2 14.6 45 7.8 ESE 15 28 8 15 1018.2 1018.2 0.0
16/09:00am 27.8 27.1 15.5 47 7.5 SE 13 32 7 17 1018.1 1018.1 0.0
16/08:30am 26.9 26.1 15.0 48 7.2 ESE 13 24 7 13 1018.1 1018.1 0.0
16/08:00am 26.6 27.5 16.2 52 6.4 SSE 6 9 3 5 1018.0 1018.0 0.0
16/07:30am 24.7 25.3 15.3 56 5.7 SSW 6 13 3 7 1018.0 1018.0 0.0
16/07:00am 23.4 23.9 14.9 59 5.0 SSW 6 13 3 7 1018.0 1018.0 0.0
16/06:30am 22.1 22.9 14.7 63 4.4 SW 4 9 2 5 1017.7 1017.7 0.0
16/06:00am 21.0 21.7 14.4 66 3.8 SW 4 9 2 5 1017.2 1017.2 0.0
16/05:30am 21.1 21.6 14.0 64 4.1 SW 4 9 2 5 1017.0 1017.0 0.0
16/05:00am 21.2 21.7 14.1 64 4.1 SW 4 9 2 5 1016.8 1016.8 0.0
16/04:30am 21.4 22.2 13.8 62 4.4 SW 2 9 1 5 1016.9 1016.9 0.0
16/04:00am 21.6 22.1 14.0 62 4.4 SW 4 9 2 5 1016.7 1016.7 0.0
16/03:30am 21.7 22.2 14.1 62 4.4 SSW 4 6 2 3 1016.7 1016.7 0.0
16/03:00am 22.3 22.9 14.2 60 4.7 SW 4 11 2 6 1016.8 1016.8 0.0
16/02:30am 23.0 23.5 15.1 61 4.7 S 6 15 3 8 1017.1 1017.1 0.0
16/02:00am 22.6 23.7 14.7 61 4.7 SSW 2 6 1 3 1017.3 1017.3 0.0
16/01:30am 22.5 23.2 14.6 61 4.7 SW 4 7 2 4 1017.5 1017.5 0.0
16/01:00am 22.6 24.0 14.4 60 4.8 CALM 0 2 0 1 1017.8 1017.8 0.0
16/12:30am 22.7 23.7 14.3 59 4.9 SSW 2 6 1 3 1018.0 1018.0 0.0
16/12:00am 22.8 23.9 14.6 60 4.8 SSW 2 6 1 3 1018.5 1018.5 0.0
 
Date/Time
EST
Temp
°C
App
Temp
°C
Dew
Point
°C
Rel
Hum
%
Delta-T
°C
Wind Press
QNH
hPa
Press
MSL
hPa
Rain since
9am
mm
Dir  Spd
km/h
Gust
km/h
Spd
kts
Gust
kts
15/11:30pm 23.4 24.2 14.9 59 5.1 S 4 9 2 5 1018.7 1018.7 0.0
15/11:00pm 23.6 24.1 15.1 59 5.1 S 6 9 3 5 1019.0 1019.0 0.0
15/10:30pm 23.7 24.4 15.5 60 4.9 S 6 11 3 6 1019.2 1019.2 0.0
15/10:00pm 23.7 24.5 14.9 57 5.2 S 4 11 2 6 1019.2 1019.2 0.0
15/09:30pm 24.0 24.4 14.7 56 5.5 S 6 13 3 7 1019.2 1019.2 0.0
15/09:00pm 24.3 24.4 14.4 54 5.8 SSE 7 17 4 9 1019.1 1019.1 0.0
15/08:30pm 24.5 23.8 14.3 53 6.0 SE 11 20 6 11 1019.0 1019.0 0.0
15/08:00pm 24.7 23.9 13.9 51 6.3 SE 11 22 6 12 1018.8 1018.8 0.0
15/07:30pm 25.0 25.0 14.2 51 6.4 SE 7 22 4 12 1018.4 1018.4 0.0
15/07:00pm 25.3 24.6 14.4 50 6.5 SE 11 28 6 15 1018.1 1018.1 0.0
15/06:30pm 25.6 24.0 15.0 52 6.4 SE 17 33 9 18 1017.6 1017.6 0.0
15/06:00pm 26.1 24.8 15.8 53 6.3 ESE 17 32 9 17 1017.0 1017.0 0.0
15/05:30pm 26.8 24.9 15.8 51 6.7 ESE 20 39 11 21 1016.6 1016.6 0.0
15/05:00pm 27.6 26.1 16.2 49 7.0 ESE 19 37 10 20 1016.3 1016.3 0.0
15/04:30pm 28.3 27.4 15.9 47 7.6 ESE 15 28 8 15 1016.1 1016.1 0.0
15/04:00pm 29.2 28.2 16.7 46 7.8 ESE 17 30 9 16 1016.0 1016.0 0.0
15/03:30pm 29.1 27.4 16.3 46 8.0 E 20 35 11 19 1015.8 1015.8 0.0
15/03:00pm 29.7 28.3 16.5 45 8.2 ESE 19 33 10 18 1015.9 1015.9 0.0
15/02:30pm 30.2 28.6 16.6 44 8.5 ESE 20 35 11 19 1016.0 1016.0 0.0
15/02:00pm 30.6 29.4 17.0 44 8.6 ESE 19 32 10 17 1016.3 1016.3 0.0
15/01:30pm 31.1 30.1 16.7 42 9.1 ESE 17 28 9 15 1016.6 1016.6 0.0
15/01:00pm 29.3 28.9 16.1 44 8.2 ESE 13 28 7 15 1016.9 1016.9 0.0
15/12:30pm 29.7 29.3 16.1 43 8.4 ESE 13 28 7 15 1017.3 1017.3 0.0
15/12:00pm 29.3 28.8 15.8 44 8.3 SE 13 28 7 15 1017.6 1017.6 0.0
15/11:30am 29.0 28.7 15.5 44 8.3 SE 11 28 6 15 1018.1 1018.1 0.0
15/11:00am 28.9 28.2 15.4 44 8.3 SE 13 30 7 16 1018.4 1018.4 0.0
15/10:30am 28.9 27.7 15.1 43 8.4 ESE 15 30 8 16 1018.6 1018.6 0.0
15/10:00am 28.7 27.9 15.2 43 8.2 ESE 13 24 7 13 1018.9 1018.9 0.0
15/09:30am 28.1 27.5 15.7 46 7.6 SE 13 30 7 16 1019.1 1019.1 0.0
15/09:00am 28.4 29.2 16.3 47 7.5 SSE 7 17 4 9 1019.2 1019.2 0.0
15/08:30am 26.6 26.5 15.9 51 6.6 SSE 11 26 6 14 1019.1 1019.1 0.0
15/08:00am 26.2 27.0 16.4 54 6.0 S 7 22 4 12 1018.9 1018.9 0.0
15/07:30am 24.8 25.5 16.2 58 5.3 SW 7 17 4 9 1018.8 1018.8 0.0
15/07:00am 23.6 24.8 15.9 62 4.7 SSW 4 9 2 5 1018.7 1018.7 0.0
15/06:30am 23.2 24.1 16.0 64 4.4 SSW 6 13 3 7 1018.2 1018.2 0.0
15/06:00am 23.1 23.9 15.9 64 4.3 SSW 6 11 3 6 1017.9 1017.9 0.0
15/05:30am 23.2 23.9 16.0 64 4.4 SW 7 13 4 7 1017.6 1017.6 0.0
15/05:00am 23.4 24.3 16.0 63 4.5 SSW 6 15 3 8 1017.3 1017.3 0.0
15/04:30am 24.0 24.4 16.3 62 4.7 SSE 9 19 5 10 1017.0 1017.0 0.0
15/04:00am 24.0 25.1 16.5 63 4.6 SSE 6 15 3 8 1016.8 1016.8 0.0
15/03:30am 24.2 24.8 16.7 63 4.6 SSE 9 19 5 10 1016.8 1016.8 0.0
15/03:00am 24.3 24.8 16.6 62 4.7 SE 9 17 5 9 1016.9 1016.9 0.0
15/02:30am 24.5 24.6 16.5 61 4.9 SSE 11 20 6 11 1017.0 1017.0 0.0
15/02:00am 24.5 25.4 16.5 61 4.9 SE 7 20 4 11 1017.0 1017.0 0.0
15/01:30am 24.5 25.1 16.7 61 4.8 SE 9 19 5 10 1017.1 1017.1 0.0
15/01:00am 24.6 24.8 16.8 62 4.8 SE 11 24 6 13 1017.2 1017.2 0.0
15/12:30am 24.6 25.1 16.6 61 4.9 SE 9 19 5 10 1017.5 1017.5 0.0
15/12:00am 24.7 24.9 16.7 61 4.9 SE 11 22 6 12 1017.5 1017.5 0.0
 
Date/Time
EST
Temp
°C
App
Temp
°C
Dew
Point
°C
Rel
Hum
%
Delta-T
°C
Wind Press
QNH
hPa
Press
MSL
hPa
Rain since
9am
mm
Dir  Spd
km/h
Gust
km/h
Spd
kts
Gust
kts
14/11:30pm 24.6 25.1 16.6 61 4.9 SSE 9 20 5 11 1017.6 1017.6 0.0
14/11:00pm 24.5 24.6 16.5 61 4.9 SE 11 22 6 12 1017.6 1017.6 0.0
14/10:30pm 24.7 24.0 16.4 60 5.1 SSE 15 28 8 15 1017.5 1017.5 0.0
14/10:00pm 24.8 24.9 16.5 60 5.1 SE 11 24 6 13 1017.5 1017.5 0.0
14/09:30pm 24.9 24.9 16.3 59 5.3 SE 11 20 6 11 1017.4 1017.4 0.0
14/09:00pm 25.2 24.8 16.1 57 5.6 SE 13 26 7 14 1017.2 1017.2 0.0
14/08:30pm 25.2 25.3 16.4 58 5.4 SE 11 33 6 18 1016.9 1016.9 0.0
14/08:00pm 25.0 24.7 16.4 59 5.3 SSE 13 32 7 17 1016.7 1016.7 0.0
14/07:30pm 24.9 25.2 17.1 62 4.8 SE 11 20 6 11 1016.2 1016.2 0.0
14/07:00pm 25.2 25.3 17.4 62 4.9 SE 13 28 7 15 1015.6 1015.6 0.0
14/06:30pm 25.7 25.1 17.6 61 5.1 SE 17 37 9 20 1015.2 1015.2 0.0
14/06:00pm 26.1 25.6 17.7 60 5.3 SE 17 30 9 16 1014.8 1014.8 0.0
14/05:30pm 26.6 26.5 17.9 59 5.5 SE 15 32 8 17 1014.1 1014.1 0.0
14/05:00pm 27.5 27.2 18.2 57 5.9 SE 17 33 9 18 1013.9 1013.9 0.0
14/04:30pm 27.8 28.0 18.5 57 5.9 SE 15 26 8 14 1013.6 1013.6 0.0
14/04:00pm 28.2 28.6 18.9 57 6.0 SE 15 30 8 16 1013.4 1013.4 0.0
14/03:30pm 28.4 28.2 19.3 57 5.9 SE 19 44 10 24 1013.1 1013.1 0.0
14/03:00pm 28.3 28.7 19.8 60 5.5 SE 17 30 9 16 1012.9 1012.9 0.0
14/02:30pm 28.9 29.7 19.8 58 6.0 SE 15 30 8 16 1012.7 1012.7 0.0

Other Formats:

Comma delimited format used in spreadsheet applications
http://www.bom.gov.au/fwo/IDQ60801/IDQ60801.94576.axf

JavaScript Object Notation format (JSON) in row-major order
http://www.bom.gov.au/fwo/IDQ60801/IDQ60801.94576.json